Terminal Aerodrome Forecast
Issued by NWS

Home | Current Version | Previous Version | Text Only | Print | Product List | Glossary Off
Versions: 1 2 3 4 5 6 7 8 9 10 11 12 13 14 15 16 17 18 19 20 21 22 23 24 25 26

000
FTUS43 KPAH 301132 AAD
TAFCGI
TAF AMD
KCGI 301132Z 3012/0112 09004KT 6SM SHRA VCTS BKN100CB
      TEMPO 3012/3014 4SM TSRA OVC025CB
     FM301400 16016G26KT 3SM TSRA OVC025CB
     FM302100 19018G28KT P6SM -SHRA OVC045
     FM010600 21012G21KT P6SM FEW130=

USA.gov is the U.S. government's official web portal to all federal, state and local government web resources and services.